sensor_id;sensor_type;location;lat;lon;timestamp;temperature;humidity
14893;DHT22;7538;53.626;9.906;2023-07-24T00:00:03;18.80;99.90
14893;DHT22;7538;53.626;9.906;2023-07-24T00:02:30;18.80;99.90
14893;DHT22;7538;53.626;9.906;2023-07-24T00:04:57;18.80;99.90
14893;DHT22;7538;53.626;9.906;2023-07-24T00:07:24;18.80;99.90
14893;DHT22;7538;53.626;9.906;2023-07-24T00:09:51;19.00;99.90
14893;DHT22;7538;53.626;9.906;2023-07-24T00:12:18;18.80;99.90
14893;DHT22;7538;53.626;9.906;2023-07-24T00:14:45;18.80;99.90
14893;DHT22;7538;53.626;9.906;2023-07-24T00:17:13;18.80;99.90
14893;DHT22;7538;53.626;9.906;2023-07-24T00:19:40;18.80;99.90
14893;DHT22;7538;53.626;9.906;2023-07-24T00:22:06;18.80;99.90
14893;DHT22;7538;53.626;9.906;2023-07-24T00:24:36;18.80;99.90
14893;DHT22;7538;53.626;9.906;2023-07-24T00:27:03;18.80;99.90
14893;DHT22;7538;53.626;9.906;2023-07-24T00:29:29;18.70;99.90
14893;DHT22;7538;53.626;9.906;2023-07-24T00:31:56;18.80;99.90
14893;DHT22;7538;53.626;9.906;2023-07-24T00:34:24;18.80;99.90
14893;DHT22;7538;53.626;9.906;2023-07-24T00:36:51;18.80;99.90
14893;DHT22;7538;53.626;9.906;2023-07-24T00:39:18;18.80;99.90
14893;DHT22;7538;53.626;9.906;2023-07-24T00:41:45;18.70;99.90
14893;DHT22;7538;53.626;9.906;2023-07-24T00:44:12;18.60;99.90
14893;DHT22;7538;53.626;9.906;2023-07-24T00:46:39;18.60;99.90
14893;DHT22;7538;53.626;9.906;2023-07-24T00:49:06;18.60;99.90
14893;DHT22;7538;53.626;9.906;2023-07-24T00:51:35;18.60;99.90
14893;DHT22;7538;53.626;9.906;2023-07-24T00:54:03;18.80;99.90
14893;DHT22;7538;53.626;9.906;2023-07-24T00:56:32;18.60;99.90
14893;DHT22;7538;53.626;9.906;2023-07-24T00:59:00;21.50;99.90
14893;DHT22;7538;53.626;9.906;2023-07-24T01:01:28;18.70;99.90
14893;DHT22;7538;53.626;9.906;2023-07-24T01:03:57;18.70;99.90
14893;DHT22;7538;53.626;9.906;2023-07-24T01:06:24;18.70;99.90
14893;DHT22;7538;53.626;9.906;2023-07-24T01:08:52;18.70;99.90
14893;DHT22;7538;53.626;9.906;2023-07-24T01:11:21;18.70;99.90
14893;DHT22;7538;53.626;9.906;2023-07-24T01:13:58;18.80;99.90
14893;DHT22;7538;53.626;9.906;2023-07-24T01:16:36;18.80;99.90
14893;DHT22;7538;53.626;9.906;2023-07-24T01:19:04;18.90;99.90
14893;DHT22;7538;53.626;9.906;2023-07-24T01:21:45;18.90;99.90
14893;DHT22;7538;53.626;9.906;2023-07-24T01:24:30;18.90;99.90
14893;DHT22;7538;53.626;9.906;2023-07-24T01:27:07;18.90;99.90
14893;DHT22;7538;53.626;9.906;2023-07-24T01:29:34;18.90;99.90
14893;DHT22;7538;53.626;9.906;2023-07-24T01:32:00;19.00;99.90
14893;DHT22;7538;53.626;9.906;2023-07-24T01:34:27;19.00;99.90
14893;DHT22;7538;53.626;9.906;2023-07-24T01:36:57;19.00;99.90
14893;DHT22;7538;53.626;9.906;2023-07-24T01:39:24;19.00;99.90
14893;DHT22;7538;53.626;9.906;2023-07-24T01:41:51;19.00;99.90
14893;DHT22;7538;53.626;9.906;2023-07-24T01:44:23;19.00;99.90
14893;DHT22;7538;53.626;9.906;2023-07-24T01:46:50;19.00;99.90
14893;DHT22;7538;53.626;9.906;2023-07-24T01:49:17;19.00;99.90
14893;DHT22;7538;53.626;9.906;2023-07-24T01:51:43;19.00;99.90
14893;DHT22;7538;53.626;9.906;2023-07-24T01:54:10;19.00;99.90
14893;DHT22;7538;53.626;9.906;2023-07-24T01:56:37;18.90;99.90
14893;DHT22;7538;53.626;9.906;2023-07-24T01:59:05;18.90;99.90
14893;DHT22;7538;53.626;9.906;2023-07-24T02:01:33;18.90;99.90
14893;DHT22;7538;53.626;9.906;2023-07-24T02:04:00;18.80;99.90
14893;DHT22;7538;53.626;9.906;2023-07-24T02:06:27;18.80;99.90
14893;DHT22;7538;53.626;9.906;2023-07-24T02:08:54;18.90;99.90
14893;DHT22;7538;53.626;9.906;2023-07-24T02:11:21;18.90;99.90
14893;DHT22;7538;53.626;9.906;2023-07-24T02:13:48;18.90;99.90
14893;DHT22;7538;53.626;9.906;2023-07-24T02:16:14;18.90;99.90
14893;DHT22;7538;53.626;9.906;2023-07-24T02:18:43;18.90;99.90
14893;DHT22;7538;53.626;9.906;2023-07-24T02:21:10;18.90;99.90
14893;DHT22;7538;53.626;9.906;2023-07-24T02:23:37;18.90;99.90
14893;DHT22;7538;53.626;9.906;2023-07-24T02:26:03;18.90;99.90
14893;DHT22;7538;53.626;9.906;2023-07-24T02:28:30;18.80;99.90
14893;DHT22;7538;53.626;9.906;2023-07-24T02:30:57;18.80;99.90
14893;DHT22;7538;53.626;9.906;2023-07-24T02:33:25;18.80;99.90
14893;DHT22;7538;53.626;9.906;2023-07-24T02:35:54;18.80;99.90
14893;DHT22;7538;53.626;9.906;2023-07-24T02:38:20;18.70;99.90
14893;DHT22;7538;53.626;9.906;2023-07-24T02:40:47;18.70;99.90
14893;DHT22;7538;53.626;9.906;2023-07-24T02:43:14;18.60;99.90
14893;DHT22;7538;53.626;9.906;2023-07-24T02:45:41;18.60;99.90
14893;DHT22;7538;53.626;9.906;2023-07-24T02:48:08;18.60;99.90
14893;DHT22;7538;53.626;9.906;2023-07-24T02:50:35;18.50;99.90
14893;DHT22;7538;53.626;9.906;2023-07-24T02:53:03;18.50;99.90
14893;DHT22;7538;53.626;9.906;2023-07-24T02:55:30;18.50;99.90
14893;DHT22;7538;53.626;9.906;2023-07-24T02:57:57;18.50;99.90
14893;DHT22;7538;53.626;9.906;2023-07-24T03:00:24;18.40;99.90
14893;DHT22;7538;53.626;9.906;2023-07-24T03:02:51;18.40;99.90
14893;DHT22;7538;53.626;9.906;2023-07-24T03:05:21;18.40;99.90
14893;DHT22;7538;53.626;9.906;2023-07-24T03:07:48;18.40;99.90
14893;DHT22;7538;53.626;9.906;2023-07-24T03:10:16;18.40;99.90
14893;DHT22;7538;53.626;9.906;2023-07-24T03:12:46;18.40;99.90
14893;DHT22;7538;53.626;9.906;2023-07-24T03:15:12;18.70;99.90
14893;DHT22;7538;53.626;9.906;2023-07-24T03:17:39;18.50;99.90
14893;DHT22;7538;53.626;9.906;2023-07-24T03:20:14;18.60;99.90
14893;DHT22;7538;53.626;9.906;2023-07-24T03:22:41;18.60;99.90
14893;DHT22;7538;53.626;9.906;2023-07-24T03:25:09;18.60;99.90
14893;DHT22;7538;53.626;9.906;2023-07-24T03:27:37;18.60;99.90
14893;DHT22;7538;53.626;9.906;2023-07-24T03:30:05;18.50;99.90
14893;DHT22;7538;53.626;9.906;2023-07-24T03:33:59;18.90;99.90
14893;DHT22;7538;53.626;9.906;2023-07-24T03:36:03;18.70;99.90
14893;DHT22;7538;53.626;9.906;2023-07-24T03:38:36;18.50;99.90
14893;DHT22;7538;53.626;9.906;2023-07-24T03:41:03;18.50;99.90
14893;DHT22;7538;53.626;9.906;2023-07-24T03:43:31;18.50;99.90
14893;DHT22;7538;53.626;9.906;2023-07-24T03:45:58;18.60;99.90
14893;DHT22;7538;53.626;9.906;2023-07-24T03:48:35;18.10;99.90
14893;DHT22;7538;53.626;9.906;2023-07-24T03:51:02;18.60;99.90
14893;DHT22;7538;53.626;9.906;2023-07-24T03:53:29;18.70;99.90
14893;DHT22;7538;53.626;9.906;2023-07-24T03:55:59;17.90;99.90
14893;DHT22;7538;53.626;9.906;2023-07-24T03:58:26;18.70;99.90
14893;DHT22;7538;53.626;9.906;2023-07-24T04:00:58;18.80;99.90
14893;DHT22;7538;53.626;9.906;2023-07-24T04:03:25;18.90;99.90
14893;DHT22;7538;53.626;9.906;2023-07-24T04:05:52;18.90;99.90
14893;DHT22;7538;53.626;9.906;2023-07-24T04:08:19;18.90;99.90
14893;DHT22;7538;53.626;9.906;2023-07-24T04:10:46;16.90;99.90
14893;DHT22;7538;53.626;9.906;2023-07-24T04:13:13;19.10;99.90
14893;DHT22;7538;53.626;9.906;2023-07-24T04:15:40;18.80;99.90
14893;DHT22;7538;53.626;9.906;2023-07-24T04:18:08;18.90;99.90
14893;DHT22;7538;53.626;9.906;2023-07-24T04:20:35;18.80;99.90
14893;DHT22;7538;53.626;9.906;2023-07-24T04:23:02;18.90;99.90
14893;DHT22;7538;53.626;9.906;2023-07-24T04:25:32;19.00;99.90
14893;DHT22;7538;53.626;9.906;2023-07-24T04:27:59;19.20;99.90
14893;DHT22;7538;53.626;9.906;2023-07-24T04:30:26;19.00;99.90
14893;DHT22;7538;53.626;9.906;2023-07-24T04:32:53;19.00;99.90
14893;DHT22;7538;53.626;9.906;2023-07-24T04:35:21;19.10;99.90
14893;DHT22;7538;53.626;9.906;2023-07-24T04:37:48;19.20;99.90
14893;DHT22;7538;53.626;9.906;2023-07-24T04:40:16;19.30;99.90
14893;DHT22;7538;53.626;9.906;2023-07-24T04:42:43;19.30;99.90
14893;DHT22;7538;53.626;9.906;2023-07-24T04:45:10;19.60;99.90
14893;DHT22;7538;53.626;9.906;2023-07-24T04:47:37;19.40;99.90
14893;DHT22;7538;53.626;9.906;2023-07-24T04:50:05;19.50;99.90
14893;DHT22;7538;53.626;9.906;2023-07-24T04:52:34;19.40;99.90
14893;DHT22;7538;53.626;9.906;2023-07-24T04:55:01;19.60;99.90
14893;DHT22;7538;53.626;9.906;2023-07-24T04:57:28;19.40;99.90
14893;DHT22;7538;53.626;9.906;2023-07-24T04:59:55;19.30;99.90
14893;DHT22;7538;53.626;9.906;2023-07-24T05:02:22;19.40;99.90
14893;DHT22;7538;53.626;9.906;2023-07-24T05:04:48;19.40;99.90
14893;DHT22;7538;53.626;9.906;2023-07-24T05:07:15;19.50;99.90
14893;DHT22;7538;53.626;9.906;2023-07-24T05:09:44;19.50;99.90
14893;DHT22;7538;53.626;9.906;2023-07-24T05:12:11;19.50;99.90
14893;DHT22;7538;53.626;9.906;2023-07-24T05:14:37;19.40;99.90
14893;DHT22;7538;53.626;9.906;2023-07-24T05:17:05;19.50;99.90
14893;DHT22;7538;53.626;9.906;2023-07-24T05:19:32;19.50;99.90
14893;DHT22;7538;53.626;9.906;2023-07-24T05:21:59;19.80;99.90
14893;DHT22;7538;53.626;9.906;2023-07-24T05:24:26;19.60;99.90
14893;DHT22;7538;53.626;9.906;2023-07-24T05:26:54;19.90;99.90
14893;DHT22;7538;53.626;9.906;2023-07-24T05:29:21;19.90;99.90
14893;DHT22;7538;53.626;9.906;2023-07-24T05:31:48;20.30;99.90
14893;DHT22;7538;53.626;9.906;2023-07-24T05:34:15;20.30;99.90
14893;DHT22;7538;53.626;9.906;2023-07-24T05:36:42;20.50;99.90
14893;DHT22;7538;53.626;9.906;2023-07-24T05:39:12;20.70;99.90
14893;DHT22;7538;53.626;9.906;2023-07-24T05:41:39;21.10;99.90
14893;DHT22;7538;53.626;9.906;2023-07-24T05:44:07;20.90;99.90
14893;DHT22;7538;53.626;9.906;2023-07-24T05:46:34;21.10;99.90
14893;DHT22;7538;53.626;9.906;2023-07-24T05:49:03;20.90;99.90
14893;DHT22;7538;53.626;9.906;2023-07-24T05:51:30;20.60;99.90
14893;DHT22;7538;53.626;9.906;2023-07-24T05:53:59;20.60;99.90
14893;DHT22;7538;53.626;9.906;2023-07-24T05:56:26;20.80;99.90
14893;DHT22;7538;53.626;9.906;2023-07-24T05:58:56;20.60;99.90
14893;DHT22;7538;53.626;9.906;2023-07-24T06:01:24;20.70;99.90
14893;DHT22;7538;53.626;9.906;2023-07-24T06:03:54;20.70;99.90
14893;DHT22;7538;53.626;9.906;2023-07-24T06:06:21;20.60;99.90
14893;DHT22;7538;53.626;9.906;2023-07-24T06:08:48;20.60;99.90
14893;DHT22;7538;53.626;9.906;2023-07-24T06:11:16;20.80;99.90
14893;DHT22;7538;53.626;9.906;2023-07-24T06:13:43;21.30;99.90
14893;DHT22;7538;53.626;9.906;2023-07-24T06:16:13;21.80;99.90
14893;DHT22;7538;53.626;9.906;2023-07-24T06:18:42;22.40;99.90
14893;DHT22;7538;53.626;9.906;2023-07-24T06:21:09;23.70;99.90
14893;DHT22;7538;53.626;9.906;2023-07-24T06:23:36;24.40;99.90
14893;DHT22;7538;53.626;9.906;2023-07-24T06:26:03;24.70;99.90
14893;DHT22;7538;53.626;9.906;2023-07-24T06:28:30;24.50;99.90
14893;DHT22;7538;53.626;9.906;2023-07-24T06:30:57;24.20;99.90
14893;DHT22;7538;53.626;9.906;2023-07-24T06:33:27;23.80;99.90
14893;DHT22;7538;53.626;9.906;2023-07-24T06:35:55;23.60;99.90
14893;DHT22;7538;53.626;9.906;2023-07-24T06:38:25;23.60;99.90
14893;DHT22;7538;53.626;9.906;2023-07-24T06:40:52;23.50;99.90
14893;DHT22;7538;53.626;9.906;2023-07-24T06:43:19;23.50;99.90
14893;DHT22;7538;53.626;9.906;2023-07-24T06:45:52;23.60;99.90
14893;DHT22;7538;53.626;9.906;2023-07-24T06:48:23;22.50;99.90
14893;DHT22;7538;53.626;9.906;2023-07-24T06:50:50;23.60;99.90
14893;DHT22;7538;53.626;9.906;2023-07-24T06:53:18;23.30;99.90
14893;DHT22;7538;53.626;9.906;2023-07-24T06:55:45;23.00;99.90
14893;DHT22;7538;53.626;9.906;2023-07-24T06:58:15;22.90;99.90
14893;DHT22;7538;53.626;9.906;2023-07-24T07:00:42;23.10;99.90
14893;DHT22;7538;53.626;9.906;2023-07-24T07:03:12;22.70;99.90
14893;DHT22;7538;53.626;9.906;2023-07-24T07:05:39;22.60;99.90
14893;DHT22;7538;53.626;9.906;2023-07-24T07:08:08;22.50;99.90
14893;DHT22;7538;53.626;9.906;2023-07-24T07:10:37;19.80;99.90
14893;DHT22;7538;53.626;9.906;2023-07-24T07:13:04;22.20;99.90
14893;DHT22;7538;53.626;9.906;2023-07-24T07:15:30;22.10;99.90
14893;DHT22;7538;53.626;9.906;2023-07-24T07:17:57;22.10;99.90
14893;DHT22;7538;53.626;9.906;2023-07-24T07:20:24;22.00;99.90
14893;DHT22;7538;53.626;9.906;2023-07-24T07:22:51;22.00;99.90
14893;DHT22;7538;53.626;9.906;2023-07-24T07:25:18;21.60;99.90
14893;DHT22;7538;53.626;9.906;2023-07-24T07:27:46;21.60;99.90
14893;DHT22;7538;53.626;9.906;2023-07-24T07:30:13;21.80;99.90
14893;DHT22;7538;53.626;9.906;2023-07-24T07:32:40;21.50;99.90
14893;DHT22;7538;53.626;9.906;2023-07-24T07:35:08;21.40;99.90
14893;DHT22;7538;53.626;9.906;2023-07-24T07:37:34;21.40;99.90
14893;DHT22;7538;53.626;9.906;2023-07-24T07:40:01;21.40;99.90
14893;DHT22;7538;53.626;9.906;2023-07-24T07:42:30;21.50;99.90
14893;DHT22;7538;53.626;9.906;2023-07-24T07:44:58;21.60;99.90
14893;DHT22;7538;53.626;9.906;2023-07-24T07:47:25;21.60;99.90
14893;DHT22;7538;53.626;9.906;2023-07-24T07:49:52;22.00;99.90
14893;DHT22;7538;53.626;9.906;2023-07-24T07:52:19;21.90;99.90
14893;DHT22;7538;53.626;9.906;2023-07-24T07:54:47;22.10;99.90
14893;DHT22;7538;53.626;9.906;2023-07-24T07:57:17;22.10;99.90
14893;DHT22;7538;53.626;9.906;2023-07-24T07:59:45;22.10;99.90
14893;DHT22;7538;53.626;9.906;2023-07-24T08:02:14;22.10;99.90
14893;DHT22;7538;53.626;9.906;2023-07-24T08:04:41;22.30;99.90
14893;DHT22;7538;53.626;9.906;2023-07-24T08:07:07;22.40;99.90
14893;DHT22;7538;53.626;9.906;2023-07-24T08:09:34;22.40;99.90
14893;DHT22;7538;53.626;9.906;2023-07-24T08:12:04;22.50;99.90
14893;DHT22;7538;53.626;9.906;2023-07-24T08:14:31;22.60;99.90
14893;DHT22;7538;53.626;9.906;2023-07-24T08:16:58;22.80;99.90
14893;DHT22;7538;53.626;9.906;2023-07-24T08:19:29;22.10;99.90
14893;DHT22;7538;53.626;9.906;2023-07-24T08:21:56;22.10;99.90
14893;DHT22;7538;53.626;9.906;2023-07-24T08:24:23;22.20;99.90
14893;DHT22;7538;53.626;9.906;2023-07-24T08:26:50;22.20;99.90
14893;DHT22;7538;53.626;9.906;2023-07-24T08:29:17;22.30;99.90
14893;DHT22;7538;53.626;9.906;2023-07-24T08:31:44;22.30;99.90
14893;DHT22;7538;53.626;9.906;2023-07-24T08:34:10;22.40;99.90
14893;DHT22;7538;53.626;9.906;2023-07-24T08:36:39;22.60;99.90
14893;DHT22;7538;53.626;9.906;2023-07-24T08:39:06;22.60;99.90
14893;DHT22;7538;53.626;9.906;2023-07-24T08:41:33;22.60;99.90
14893;DHT22;7538;53.626;9.906;2023-07-24T08:44:01;22.70;99.90
14893;DHT22;7538;53.626;9.906;2023-07-24T08:46:28;23.00;99.90
14893;DHT22;7538;53.626;9.906;2023-07-24T08:48:56;23.20;99.90
14893;DHT22;7538;53.626;9.906;2023-07-24T08:51:24;23.50;99.90
14893;DHT22;7538;53.626;9.906;2023-07-24T08:53:53;23.50;99.90
14893;DHT22;7538;53.626;9.906;2023-07-24T08:56:20;23.70;99.90
14893;DHT22;7538;53.626;9.906;2023-07-24T08:58:58;23.90;99.90
14893;DHT22;7538;53.626;9.906;2023-07-24T09:01:25;23.50;99.90
14893;DHT22;7538;53.626;9.906;2023-07-24T09:03:52;25.30;99.90
14893;DHT22;7538;53.626;9.906;2023-07-24T09:06:19;25.40;99.90
14893;DHT22;7538;53.626;9.906;2023-07-24T09:08:46;25.70;99.90
14893;DHT22;7538;53.626;9.906;2023-07-24T09:11:15;25.90;99.90
14893;DHT22;7538;53.626;9.906;2023-07-24T09:13:42;26.00;99.90
14893;DHT22;7538;53.626;9.906;2023-07-24T09:16:20;26.20;99.90
14893;DHT22;7538;53.626;9.906;2023-07-24T09:18:48;26.50;99.90
14893;DHT22;7538;53.626;9.906;2023-07-24T09:21:27;27.50;99.80
14893;DHT22;7538;53.626;9.906;2023-07-24T09:23:54;29.00;94.60
14893;DHT22;7538;53.626;9.906;2023-07-24T09:26:22;29.10;94.60
14893;DHT22;7538;53.626;9.906;2023-07-24T09:28:54;30.10;92.80
14893;DHT22;7538;53.626;9.906;2023-07-24T09:31:22;29.90;91.80
14893;DHT22;7538;53.626;9.906;2023-07-24T09:33:49;30.20;90.10
14893;DHT22;7538;53.626;9.906;2023-07-24T09:36:16;29.40;90.00
14893;DHT22;7538;53.626;9.906;2023-07-24T09:38:43;28.90;91.80
14893;DHT22;7538;53.626;9.906;2023-07-24T09:41:11;28.20;93.60
14893;DHT22;7538;53.626;9.906;2023-07-24T09:43:41;27.70;95.70
14893;DHT22;7538;53.626;9.906;2023-07-24T09:46:09;27.00;97.50
14893;DHT22;7538;53.626;9.906;2023-07-24T09:48:36;26.90;99.90
14893;DHT22;7538;53.626;9.906;2023-07-24T09:51:03;27.10;99.90
14893;DHT22;7538;53.626;9.906;2023-07-24T09:53:33;27.80;98.80
14893;DHT22;7538;53.626;9.906;2023-07-24T09:56:02;29.20;93.00
14893;DHT22;7538;53.626;9.906;2023-07-24T09:58:29;30.60;87.50
14893;DHT22;7538;53.626;9.906;2023-07-24T10:01:02;31.10;84.00
14893;DHT22;7538;53.626;9.906;2023-07-24T10:03:32;31.10;81.80
14893;DHT22;7538;53.626;9.906;2023-07-24T10:06:00;30.80;79.00
14893;DHT22;7538;53.626;9.906;2023-07-24T10:08:27;30.20;81.50
14893;DHT22;7538;53.626;9.906;2023-07-24T10:10:55;29.90;84.60
14893;DHT22;7538;53.626;9.906;2023-07-24T10:13:22;29.70;86.90
14893;DHT22;7538;53.626;9.906;2023-07-24T10:15:49;30.00;85.70
14893;DHT22;7538;53.626;9.906;2023-07-24T10:18:24;29.60;85.20
14893;DHT22;7538;53.626;9.906;2023-07-24T10:21:00;29.40;85.70
14893;DHT22;7538;53.626;9.906;2023-07-24T10:23:28;28.70;86.50
14893;DHT22;7538;53.626;9.906;2023-07-24T10:25:55;28.20;90.10
14893;DHT22;7538;53.626;9.906;2023-07-24T10:28:31;27.90;92.20
14893;DHT22;7538;53.626;9.906;2023-07-24T10:31:01;27.50;93.80
14893;DHT22;7538;53.626;9.906;2023-07-24T10:33:31;27.70;94.40
14893;DHT22;7538;53.626;9.906;2023-07-24T10:36:09;28.00;92.90
14893;DHT22;7538;53.626;9.906;2023-07-24T10:38:40;28.20;91.60
14893;DHT22;7538;53.626;9.906;2023-07-24T10:41:08;27.90;92.00
14893;DHT22;7538;53.626;9.906;2023-07-24T10:43:46;27.80;92.00
14893;DHT22;7538;53.626;9.906;2023-07-24T10:46:14;27.70;92.70
14893;DHT22;7538;53.626;9.906;2023-07-24T10:48:44;27.60;93.10
14893;DHT22;7538;53.626;9.906;2023-07-24T10:51:12;27.90;92.50
14893;DHT22;7538;53.626;9.906;2023-07-24T10:53:44;27.90;91.90
14893;DHT22;7538;53.626;9.906;2023-07-24T10:56:14;27.80;92.30
14893;DHT22;7538;53.626;9.906;2023-07-24T10:58:41;27.80;92.30
14893;DHT22;7538;53.626;9.906;2023-07-24T11:01:09;27.90;91.60
14893;DHT22;7538;53.626;9.906;2023-07-24T11:03:36;28.20;91.70
14893;DHT22;7538;53.626;9.906;2023-07-24T11:06:05;28.60;90.00
14893;DHT22;7538;53.626;9.906;2023-07-24T11:08:38;29.10;88.60
14893;DHT22;7538;53.626;9.906;2023-07-24T11:11:07;29.20;85.00
14893;DHT22;7538;53.626;9.906;2023-07-24T11:13:34;29.10;83.90
14893;DHT22;7538;53.626;9.906;2023-07-24T11:16:05;29.10;85.00
14893;DHT22;7538;53.626;9.906;2023-07-24T11:18:32;29.10;84.20
14893;DHT22;7538;53.626;9.906;2023-07-24T11:20:58;27.60;83.70
14893;DHT22;7538;53.626;9.906;2023-07-24T11:23:28;29.50;83.80
14893;DHT22;7538;53.626;9.906;2023-07-24T11:25:55;29.30;86.30
14893;DHT22;7538;53.626;9.906;2023-07-24T11:28:21;29.20;85.10
14893;DHT22;7538;53.626;9.906;2023-07-24T11:30:49;28.70;84.40
14893;DHT22;7538;53.626;9.906;2023-07-24T11:33:17;28.80;86.60
14893;DHT22;7538;53.626;9.906;2023-07-24T11:35:46;28.80;85.40
14893;DHT22;7538;53.626;9.906;2023-07-24T11:38:13;29.00;87.30
14893;DHT22;7538;53.626;9.906;2023-07-24T11:40:43;28.50;88.50
14893;DHT22;7538;53.626;9.906;2023-07-24T11:43:17;28.50;87.50
14893;DHT22;7538;53.626;9.906;2023-07-24T11:45:45;28.70;87.60
14893;DHT22;7538;53.626;9.906;2023-07-24T11:48:14;28.70;87.80
14893;DHT22;7538;53.626;9.906;2023-07-24T11:50:42;28.60;86.30
14893;DHT22;7538;53.626;9.906;2023-07-24T11:53:19;28.50;86.10
14893;DHT22;7538;53.626;9.906;2023-07-24T11:55:47;28.30;85.80
14893;DHT22;7538;53.626;9.906;2023-07-24T11:58:15;28.40;87.80
14893;DHT22;7538;53.626;9.906;2023-07-24T12:00:42;27.90;89.50
14893;DHT22;7538;53.626;9.906;2023-07-24T12:03:09;27.90;91.90
14893;DHT22;7538;53.626;9.906;2023-07-24T12:05:39;28.00;90.80
14893;DHT22;7538;53.626;9.906;2023-07-24T12:08:07;28.00;90.70
14893;DHT22;7538;53.626;9.906;2023-07-24T12:10:36;28.10;91.10
14893;DHT22;7538;53.626;9.906;2023-07-24T12:13:05;28.10;90.80
14893;DHT22;7538;53.626;9.906;2023-07-24T12:15:33;28.00;91.00
14893;DHT22;7538;53.626;9.906;2023-07-24T12:18:01;27.80;90.80
14893;DHT22;7538;53.626;9.906;2023-07-24T12:20:28;27.70;90.20
14893;DHT22;7538;53.626;9.906;2023-07-24T12:22:55;27.50;91.70
14893;DHT22;7538;53.626;9.906;2023-07-24T12:25:23;27.20;90.30
14893;DHT22;7538;53.626;9.906;2023-07-24T12:27:50;27.10;91.30
14893;DHT22;7538;53.626;9.906;2023-07-24T12:30:20;27.10;93.40
14893;DHT22;7538;53.626;9.906;2023-07-24T12:32:47;27.20;92.50
14893;DHT22;7538;53.626;9.906;2023-07-24T12:35:16;27.00;91.40
14893;DHT22;7538;53.626;9.906;2023-07-24T12:37:43;27.00;91.00
14893;DHT22;7538;53.626;9.906;2023-07-24T12:40:11;26.90;92.10
14893;DHT22;7538;53.626;9.906;2023-07-24T12:42:38;26.90;91.70
14893;DHT22;7538;53.626;9.906;2023-07-24T12:45:08;26.90;92.20
14893;DHT22;7538;53.626;9.906;2023-07-24T12:47:36;26.80;92.10
14893;DHT22;7538;53.626;9.906;2023-07-24T12:50:04;27.00;91.40
14893;DHT22;7538;53.626;9.906;2023-07-24T12:52:31;27.10;92.50
14893;DHT22;7538;53.626;9.906;2023-07-24T12:54:58;27.10;89.90
14893;DHT22;7538;53.626;9.906;2023-07-24T12:57:25;26.90;92.30
14893;DHT22;7538;53.626;9.906;2023-07-24T13:00:09;26.80;91.20
14893;DHT22;7538;53.626;9.906;2023-07-24T13:02:39;26.90;91.20
14893;DHT22;7538;53.626;9.906;2023-07-24T13:05:08;26.90;90.70
14893;DHT22;7538;53.626;9.906;2023-07-24T13:07:35;27.00;90.50
14893;DHT22;7538;53.626;9.906;2023-07-24T13:10:02;26.90;90.10
14893;DHT22;7538;53.626;9.906;2023-07-24T13:12:29;26.80;89.40
14893;DHT22;7538;53.626;9.906;2023-07-24T13:14:56;26.60;90.20
14893;DHT22;7538;53.626;9.906;2023-07-24T13:17:23;26.70;91.10
14893;DHT22;7538;53.626;9.906;2023-07-24T13:19:51;26.90;92.20
14893;DHT22;7538;53.626;9.906;2023-07-24T13:22:18;27.00;90.60
14893;DHT22;7538;53.626;9.906;2023-07-24T13:24:45;27.00;90.20
14893;DHT22;7538;53.626;9.906;2023-07-24T13:27:12;27.00;89.40
14893;DHT22;7538;53.626;9.906;2023-07-24T13:29:39;26.70;89.90
14893;DHT22;7538;53.626;9.906;2023-07-24T13:32:07;26.70;89.30
14893;DHT22;7538;53.626;9.906;2023-07-24T13:34:34;26.50;89.90
14893;DHT22;7538;53.626;9.906;2023-07-24T13:37:02;26.60;88.70
14893;DHT22;7538;53.626;9.906;2023-07-24T13:39:29;26.50;88.80
14893;DHT22;7538;53.626;9.906;2023-07-24T13:41:57;26.50;88.60
14893;DHT22;7538;53.626;9.906;2023-07-24T13:44:23;26.60;88.40
14893;DHT22;7538;53.626;9.906;2023-07-24T13:46:50;26.70;89.70
14893;DHT22;7538;53.626;9.906;2023-07-24T13:49:17;26.80;89.40
14893;DHT22;7538;53.626;9.906;2023-07-24T13:51:45;26.90;88.10
14893;DHT22;7538;53.626;9.906;2023-07-24T13:54:13;26.90;89.60
14893;DHT22;7538;53.626;9.906;2023-07-24T13:56:41;26.90;90.00
14893;DHT22;7538;53.626;9.906;2023-07-24T13:59:08;26.80;89.60
14893;DHT22;7538;53.626;9.906;2023-07-24T14:01:35;26.80;88.80
14893;DHT22;7538;53.626;9.906;2023-07-24T14:04:02;26.70;89.40
14893;DHT22;7538;53.626;9.906;2023-07-24T14:06:29;26.40;89.20
14893;DHT22;7538;53.626;9.906;2023-07-24T14:08:56;26.30;90.80
14893;DHT22;7538;53.626;9.906;2023-07-24T14:11:24;26.30;91.10
14893;DHT22;7538;53.626;9.906;2023-07-24T14:13:52;26.30;90.90
14893;DHT22;7538;53.626;9.906;2023-07-24T14:16:19;26.40;91.10
14893;DHT22;7538;53.626;9.906;2023-07-24T14:18:45;26.50;90.20
14893;DHT22;7538;53.626;9.906;2023-07-24T14:21:12;26.60;90.30
14893;DHT22;7538;53.626;9.906;2023-07-24T14:23:39;26.80;90.30
14893;DHT22;7538;53.626;9.906;2023-07-24T14:28:35;26.90;89.50
14893;DHT22;7538;53.626;9.906;2023-07-24T14:31:01;27.00;90.30
14893;DHT22;7538;53.626;9.906;2023-07-24T14:33:29;26.70;89.20
14893;DHT22;7538;53.626;9.906;2023-07-24T14:35:56;23.30;87.10
14893;DHT22;7538;53.626;9.906;2023-07-24T14:38:23;26.70;89.70
14893;DHT22;7538;53.626;9.906;2023-07-24T14:40:53;26.60;90.00
14893;DHT22;7538;53.626;9.906;2023-07-24T14:43:20;26.60;90.40
14893;DHT22;7538;53.626;9.906;2023-07-24T14:45:48;26.90;90.80
14893;DHT22;7538;53.626;9.906;2023-07-24T14:48:15;26.50;90.00
14893;DHT22;7538;53.626;9.906;2023-07-24T14:50:42;26.50;90.00
14893;DHT22;7538;53.626;9.906;2023-07-24T14:53:09;26.50;90.30
14893;DHT22;7538;53.626;9.906;2023-07-24T14:55:36;26.40;92.90
14893;DHT22;7538;53.626;9.906;2023-07-24T14:58:03;26.30;95.30
14893;DHT22;7538;53.626;9.906;2023-07-24T15:00:31;26.20;97.00
14893;DHT22;7538;53.626;9.906;2023-07-24T15:02:59;26.10;96.80
14893;DHT22;7538;53.626;9.906;2023-07-24T15:05:26;26.00;97.40
14893;DHT22;7538;53.626;9.906;2023-07-24T15:07:53;25.90;98.10
14893;DHT22;7538;53.626;9.906;2023-07-24T15:10:20;25.60;98.60
14893;DHT22;7538;53.626;9.906;2023-07-24T15:12:47;25.30;99.20
14893;DHT22;7538;53.626;9.906;2023-07-24T15:15:14;25.10;99.90
14893;DHT22;7538;53.626;9.906;2023-07-24T15:17:41;24.90;99.90
14893;DHT22;7538;53.626;9.906;2023-07-24T15:20:10;24.90;99.90
14893;DHT22;7538;53.626;9.906;2023-07-24T15:22:38;24.80;99.90
14893;DHT22;7538;53.626;9.906;2023-07-24T15:25:06;24.50;99.90
14893;DHT22;7538;53.626;9.906;2023-07-24T15:27:33;23.90;99.90
14893;DHT22;7538;53.626;9.906;2023-07-24T15:30:01;22.70;99.90
14893;DHT22;7538;53.626;9.906;2023-07-24T15:32:28;21.40;99.90
14893;DHT22;7538;53.626;9.906;2023-07-24T15:34:54;20.60;99.90
14893;DHT22;7538;53.626;9.906;2023-07-24T15:37:23;19.80;99.90
14893;DHT22;7538;53.626;9.906;2023-07-24T15:39:50;19.20;99.90
14893;DHT22;7538;53.626;9.906;2023-07-24T15:42:17;18.90;99.90
14893;DHT22;7538;53.626;9.906;2023-07-24T15:44:46;18.50;99.90
14893;DHT22;7538;53.626;9.906;2023-07-24T15:47:13;18.30;99.90
14893;DHT22;7538;53.626;9.906;2023-07-24T15:49:40;18.30;99.90
14893;DHT22;7538;53.626;9.906;2023-07-24T15:52:07;18.20;99.90